ニューヨーク/JFK の空港の天気 - METARとTAF

ジョン・F・ケネディ国際空港 ( KJFK / JFK ) - アメリカ ニューヨーク州ニューヨーク
飛行場実況気象(Metar)
観測時間12/15 06:51 EST (12/15 11:51 UTC)
風向・風速北 5m/s
視程9650m
天気現象もや
全天の8割程度の雲 雲底高度 150m
全天を覆う雲 雲底高度 300m
気温8.9℃
湿度100%
気圧1022.5hPa
METARKJFK 151151Z 36009KT 6SM BR BKN005 OVC010 09/09 A3020 RMK AO2 RAE03 SLP225 P0000 60013 70026 T00890089 10100 20089 55005 $
過去の天気等 Google飛行場航空写真 Wunderground天気予報

過去48時間のMETAR

飛行場予報(TAF)
発表時間: 12/15 06:40 EST (12/15 11:40 UTC)
予報対象時間: 15日7時 EST ~ 16日13時 EST
風向・風速不定 2m/s
視程8050m
天気現象弱い雨 もや
全天の8割程度の雲 雲底高度 150m
全天を覆う雲 雲底高度 300m
15日7時 EST ~ 15日10時 EST に一時的に
視程4830m
天気現象弱い雨 もや
全天を覆う雲 雲底高度 150m
15日11時 EST から
風向・風速北北東 4m/s
視程10km以上
全天の8割程度の雲 雲底高度 460m
全天の8割程度の雲 雲底高度 760m
15日14時 EST から
風向・風速北北東 6m/s 瞬間風速 9m/s
視程10km以上
全天の4割程度の雲 雲底高度 1070m
全天の8割程度の雲 雲底高度 1520m
16日0時 EST から
風向・風速北東 6m/s 瞬間風速 10m/s
視程8050m
天気現象弱い雨 もや
全天の4割程度の雲 雲底高度 460m
全天の8割程度の雲 雲底高度 910m
16日3時 EST から
風向・風速北東 8m/s 瞬間風速 11m/s
視程4830m
天気現象弱い雨 もや
全天の8割程度の雲 雲底高度 460m
全天を覆う雲 雲底高度 1070m
16日7時 EST から
風向・風速北東 8m/s 瞬間風速 12m/s
視程4830m
天気現象弱い雨 もや
全天の4割程度の雲 雲底高度 210m
全天の8割程度の雲 雲底高度 460m
KJFK 151140Z 1512/1618 VRB03KT 5SM -RA BR BKN005 OVC010
TEMPO 1512/1515 3SM -RA BR OVC005
FM151600 03008KT P6SM BKN015 BKN025
FM151900 03011G17KT P6SM SCT035 BKN050
FM160500 05012G20KT 5SM -RA BR SCT015 BKN030
FM160800 05016G22KT 3SM -RA BR BKN015 OVC035
FM161200 05016G24KT 3SM -RA BR SCT007 BKN015